createdAt,value
2023-04-30T00:00:38.567Z,0.00
2023-04-30T00:01:38.629Z,0.00
2023-04-30T00:02:38.670Z,0.00
2023-04-30T00:03:38.630Z,0.00
2023-04-30T00:04:38.574Z,0.00
2023-04-30T00:05:38.576Z,0.00
2023-04-30T00:06:38.608Z,0.00
2023-04-30T00:07:38.560Z,0.00
2023-04-30T00:08:38.568Z,0.00
2023-04-30T00:09:38.579Z,0.00
2023-04-30T00:10:38.567Z,0.00
2023-04-30T00:11:38.571Z,0.00
2023-04-30T00:12:38.577Z,0.00
2023-04-30T00:13:38.574Z,0.00
2023-04-30T00:14:38.572Z,0.00
2023-04-30T00:15:38.612Z,0.00
2023-04-30T00:16:38.636Z,0.00
2023-04-30T00:17:38.643Z,0.00
2023-04-30T00:18:38.616Z,0.00
2023-04-30T00:19:38.591Z,0.00
2023-04-30T00:20:38.595Z,0.00
2023-04-30T00:21:38.594Z,0.00
2023-04-30T00:22:38.593Z,0.00
2023-04-30T00:23:38.595Z,0.00
2023-04-30T00:24:38.601Z,0.00
2023-04-30T00:25:38.613Z,0.00
2023-04-30T00:26:38.619Z,0.00
2023-04-30T00:27:40.666Z,0.00
2023-04-30T00:28:38.611Z,0.00
2023-04-30T00:29:38.609Z,0.00
2023-04-30T00:30:38.617Z,0.00
2023-04-30T00:31:38.770Z,0.00
2023-04-30T00:32:38.672Z,0.00
2023-04-30T00:33:38.613Z,0.00
2023-04-30T00:34:38.635Z,0.00
2023-04-30T00:35:38.619Z,0.00
2023-04-30T00:36:38.631Z,0.00
2023-04-30T00:37:38.621Z,0.00
2023-04-30T00:38:38.639Z,0.00
2023-04-30T00:39:38.635Z,0.00
2023-04-30T00:40:38.639Z,0.00
2023-04-30T00:41:38.645Z,0.00
2023-04-30T00:42:38.639Z,0.00
2023-04-30T00:43:38.676Z,0.00
2023-04-30T00:44:38.636Z,0.00
2023-04-30T00:45:38.665Z,0.00
2023-04-30T00:46:38.651Z,0.00
2023-04-30T00:47:38.715Z,0.00
2023-04-30T00:48:38.651Z,0.00
2023-04-30T00:49:38.648Z,0.00
2023-04-30T00:50:38.654Z,0.00
2023-04-30T00:51:38.659Z,0.00
2023-04-30T00:52:38.659Z,0.00
2023-04-30T00:53:38.656Z,0.00
2023-04-30T00:54:38.660Z,0.00
2023-04-30T00:55:38.660Z,0.00
2023-04-30T00:56:38.672Z,0.00
2023-04-30T00:57:38.667Z,0.00
2023-04-30T00:58:38.674Z,0.00
2023-04-30T00:59:38.672Z,0.00
2023-04-30T01:00:38.683Z,0.00
2023-04-30T01:01:38.803Z,0.00
2023-04-30T01:02:38.821Z,0.00
2023-04-30T01:03:38.816Z,0.00
2023-04-30T01:04:38.679Z,0.00
2023-04-30T01:05:38.682Z,0.00
2023-04-30T01:06:38.921Z,0.00
2023-04-30T01:07:38.709Z,0.00
2023-04-30T01:08:38.695Z,0.00
2023-04-30T01:09:38.692Z,0.00
2023-04-30T01:10:38.697Z,0.00
2023-04-30T01:11:38.698Z,0.00
2023-04-30T01:12:38.708Z,0.00
2023-04-30T01:13:38.699Z,0.00
2023-04-30T01:14:38.707Z,0.00
2023-04-30T01:15:38.738Z,0.00
2023-04-30T01:16:38.709Z,0.00
2023-04-30T01:17:38.853Z,0.00
2023-04-30T01:18:38.748Z,0.00
2023-04-30T01:19:38.743Z,0.00
2023-04-30T01:20:38.718Z,0.00
2023-04-30T01:21:38.716Z,0.00
2023-04-30T01:22:38.720Z,0.00
2023-04-30T01:23:38.718Z,0.00
2023-04-30T01:24:38.731Z,0.00
2023-04-30T01:25:38.724Z,0.00
2023-04-30T01:26:38.729Z,0.00
2023-04-30T01:27:38.736Z,0.00
2023-04-30T01:28:38.748Z,0.00
2023-04-30T01:29:38.732Z,0.00
2023-04-30T01:30:38.746Z,0.00
2023-04-30T01:31:38.790Z,0.00
2023-04-30T01:32:38.765Z,0.00
2023-04-30T01:33:38.749Z,0.00
2023-04-30T01:34:38.745Z,0.00
2023-04-30T01:35:38.846Z,0.00
2023-04-30T01:36:38.809Z,0.00
2023-04-30T01:37:38.753Z,0.00
2023-04-30T01:38:38.755Z,0.00
2023-04-30T01:39:38.757Z,0.00
2023-04-30T01:40:38.766Z,0.00
2023-04-30T01:41:38.761Z,0.00
2023-04-30T01:42:38.770Z,0.00
2023-04-30T01:43:38.770Z,0.00
2023-04-30T01:44:38.774Z,0.00
2023-04-30T01:45:38.767Z,0.00
2023-04-30T01:46:38.981Z,0.00
2023-04-30T01:47:38.847Z,0.00
2023-04-30T01:48:38.780Z,0.00
2023-04-30T01:49:38.803Z,0.00
2023-04-30T01:50:38.784Z,0.00
2023-04-30T01:51:38.811Z,0.00
2023-04-30T01:52:38.793Z,0.00
2023-04-30T01:53:38.793Z,0.00
2023-04-30T01:54:38.806Z,0.00
2023-04-30T01:55:38.799Z,0.00
2023-04-30T01:56:38.796Z,0.00
2023-04-30T01:57:38.803Z,0.00
2023-04-30T01:58:38.795Z,0.00
2023-04-30T01:59:38.807Z,0.00
2023-04-30T02:00:38.808Z,0.00
2023-04-30T02:01:38.888Z,0.00
2023-04-30T02:02:38.855Z,0.00
2023-04-30T02:03:38.975Z,0.00
2023-04-30T02:04:38.816Z,0.00
2023-04-30T02:05:38.810Z,0.00
2023-04-30T02:06:38.955Z,0.00
2023-04-30T02:07:38.844Z,0.00
2023-04-30T02:08:38.822Z,0.00
2023-04-30T02:09:38.822Z,0.00
2023-04-30T02:10:38.827Z,0.00
2023-04-30T02:11:38.876Z,0.00
2023-04-30T02:12:38.833Z,0.00
2023-04-30T02:13:38.823Z,0.00
2023-04-30T02:14:38.836Z,0.00
2023-04-30T02:15:38.844Z,0.00
2023-04-30T02:16:38.882Z,0.00
2023-04-30T02:17:38.896Z,0.00
2023-04-30T02:18:38.839Z,0.00
2023-04-30T02:19:38.848Z,0.00
2023-04-30T02:20:38.845Z,0.00
2023-04-30T02:21:38.843Z,0.00
2023-04-30T02:22:38.857Z,0.00
2023-04-30T02:23:38.877Z,0.00
2023-04-30T02:24:38.854Z,0.00
2023-04-30T02:25:38.858Z,0.00
2023-04-30T02:26:38.851Z,0.00
2023-04-30T02:27:38.866Z,0.00
2023-04-30T02:28:38.865Z,0.00
2023-04-30T02:29:38.859Z,0.00
2023-04-30T02:30:38.865Z,0.00
2023-04-30T02:31:38.918Z,0.00
2023-04-30T02:32:38.912Z,0.00
2023-04-30T02:33:38.869Z,0.00
2023-04-30T02:34:38.870Z,0.00
2023-04-30T02:35:38.872Z,0.00
2023-04-30T02:36:38.876Z,0.00
2023-04-30T02:37:38.873Z,0.00
2023-04-30T02:38:38.882Z,0.00
2023-04-30T02:39:38.905Z,0.00
2023-04-30T02:40:38.884Z,0.00
2023-04-30T02:41:38.882Z,0.00
2023-04-30T02:42:38.896Z,0.00
2023-04-30T02:43:38.893Z,0.00
2023-04-30T02:44:38.892Z,0.00
2023-04-30T02:45:38.912Z,0.00
2023-04-30T02:46:38.895Z,0.00
2023-04-30T02:47:38.922Z,0.00
2023-04-30T02:48:38.908Z,0.00
2023-04-30T02:49:38.901Z,0.00
2023-04-30T02:50:38.899Z,0.00
2023-04-30T02:51:38.950Z,0.00
2023-04-30T02:52:38.899Z,0.00
2023-04-30T02:53:38.927Z,0.00
2023-04-30T02:54:38.919Z,0.00
2023-04-30T02:55:38.932Z,0.00
2023-04-30T02:56:38.917Z,0.00
2023-04-30T02:57:38.931Z,0.00
2023-04-30T02:58:38.916Z,0.00
2023-04-30T02:59:38.919Z,0.00
2023-04-30T03:00:38.925Z,0.00
2023-04-30T03:01:38.971Z,0.00
2023-04-30T03:02:39.012Z,0.00
2023-04-30T03:03:38.960Z,0.00
2023-04-30T03:04:38.936Z,0.00
2023-04-30T03:05:38.928Z,0.00
2023-04-30T03:06:39.022Z,0.00
2023-04-30T03:07:38.937Z,0.00
2023-04-30T03:08:38.947Z,0.00
2023-04-30T03:09:38.937Z,0.00
2023-04-30T03:10:38.948Z,0.00
2023-04-30T03:11:38.981Z,0.00
2023-04-30T03:12:38.957Z,0.00
2023-04-30T03:13:38.944Z,0.00
2023-04-30T03:14:38.945Z,0.00
2023-04-30T03:15:38.947Z,0.00
2023-04-30T03:16:39.055Z,0.00
2023-04-30T03:17:39.038Z,0.00
2023-04-30T03:18:38.963Z,0.00
2023-04-30T03:19:38.965Z,0.00
2023-04-30T03:20:38.965Z,0.00
2023-04-30T03:21:38.960Z,0.00
2023-04-30T03:22:38.969Z,0.00
2023-04-30T03:23:38.969Z,4.00
2023-04-30T03:24:38.980Z,4.00
2023-04-30T03:25:38.971Z,0.00
2023-04-30T03:26:38.976Z,4.00
2023-04-30T03:27:38.997Z,4.00
2023-04-30T03:28:38.988Z,4.00
2023-04-30T03:29:38.979Z,0.00
2023-04-30T03:30:38.986Z,4.00
2023-04-30T03:31:39.087Z,0.00
2023-04-30T03:32:39.065Z,0.00
2023-04-30T03:33:39.032Z,0.00
2023-04-30T03:34:38.995Z,0.00
2023-04-30T03:35:38.995Z,0.00
2023-04-30T03:36:39.055Z,4.00
2023-04-30T03:37:39.001Z,4.00
2023-04-30T03:38:39.002Z,0.00
2023-04-30T03:39:39.012Z,0.00
2023-04-30T03:40:39.008Z,0.00
2023-04-30T03:41:39.311Z,0.00
2023-04-30T03:42:39.026Z,0.00
2023-04-30T03:43:39.043Z,0.00
2023-04-30T03:44:39.013Z,0.00
2023-04-30T03:45:39.024Z,0.00
2023-04-30T03:46:39.129Z,0.00
2023-04-30T03:47:39.080Z,0.00
2023-04-30T03:48:39.024Z,4.00
2023-04-30T03:49:39.032Z,4.00
2023-04-30T03:50:39.036Z,4.00
2023-04-30T03:51:39.030Z,4.00
2023-04-30T03:52:39.039Z,4.00
2023-04-30T03:53:39.032Z,4.00
2023-04-30T03:54:39.039Z,0.00
2023-04-30T03:55:39.042Z,0.00
2023-04-30T03:56:39.078Z,4.00
2023-04-30T03:57:39.044Z,4.00
2023-04-30T03:58:39.055Z,4.00
2023-04-30T03:59:39.079Z,4.00
2023-04-30T04:00:39.049Z,4.00
2023-04-30T04:01:39.187Z,4.00
2023-04-30T04:02:39.098Z,4.00
2023-04-30T04:03:39.092Z,4.00
2023-04-30T04:04:39.071Z,4.00
2023-04-30T04:05:39.063Z,4.00
2023-04-30T04:06:39.098Z,4.00
2023-04-30T04:07:39.081Z,4.00
2023-04-30T04:08:39.070Z,4.00
2023-04-30T04:09:39.071Z,4.00
2023-04-30T04:10:39.078Z,4.00
2023-04-30T04:11:39.083Z,0.00
2023-04-30T04:12:39.072Z,4.00
2023-04-30T04:13:39.077Z,4.00
2023-04-30T04:14:39.096Z,4.00
2023-04-30T04:15:39.139Z,4.00
2023-04-30T04:16:39.169Z,4.00
2023-04-30T04:17:39.143Z,4.00
2023-04-30T04:18:39.091Z,4.00
2023-04-30T04:19:39.097Z,4.00
2023-04-30T04:20:39.091Z,4.00
2023-04-30T04:21:39.093Z,4.00
2023-04-30T04:22:39.145Z,4.00
2023-04-30T04:23:39.106Z,4.00
2023-04-30T04:24:39.101Z,4.00
2023-04-30T04:25:39.096Z,8.00
2023-04-30T04:26:39.107Z,8.00
2023-04-30T04:27:39.111Z,4.00
2023-04-30T04:28:39.129Z,4.00
2023-04-30T04:29:39.107Z,4.00
2023-04-30T04:30:39.110Z,4.00
2023-04-30T04:31:39.146Z,4.00
2023-04-30T04:32:39.200Z,4.00
2023-04-30T04:33:39.137Z,4.00
2023-04-30T04:34:39.118Z,8.00
2023-04-30T04:35:39.133Z,8.00
2023-04-30T04:36:39.127Z,4.00
2023-04-30T04:37:39.124Z,4.00
2023-04-30T04:38:39.170Z,4.00
2023-04-30T04:39:39.127Z,4.00
2023-04-30T04:40:39.123Z,4.00
2023-04-30T04:41:39.129Z,4.00
2023-04-30T04:42:39.144Z,8.00
2023-04-30T04:43:39.139Z,4.00
2023-04-30T04:44:39.138Z,4.00
2023-04-30T04:45:39.135Z,8.00
2023-04-30T04:46:39.183Z,8.00
2023-04-30T04:47:39.244Z,4.00
2023-04-30T04:48:39.146Z,8.00
2023-04-30T04:49:39.150Z,8.00
2023-04-30T04:50:39.148Z,8.00
2023-04-30T04:51:39.154Z,8.00
2023-04-30T04:52:39.158Z,4.00
2023-04-30T04:53:39.151Z,4.00
2023-04-30T04:54:39.155Z,8.00
2023-04-30T04:55:39.170Z,8.00
2023-04-30T04:56:39.158Z,8.00
2023-04-30T04:57:39.157Z,8.00
2023-04-30T04:58:39.164Z,8.00
2023-04-30T04:59:39.172Z,8.00
2023-04-30T05:00:39.169Z,8.00
2023-04-30T05:01:39.233Z,8.00
2023-04-30T05:02:39.294Z,8.00
2023-04-30T05:03:39.314Z,8.00
2023-04-30T05:04:39.180Z,8.00
2023-04-30T05:05:39.183Z,8.00
2023-04-30T05:06:39.305Z,8.00
2023-04-30T05:07:39.190Z,8.00
2023-04-30T05:08:39.184Z,12.00
2023-04-30T05:09:39.194Z,8.00
2023-04-30T05:10:39.184Z,4.00
2023-04-30T05:11:39.198Z,8.00
2023-04-30T05:12:39.357Z,8.00
2023-04-30T05:13:39.192Z,4.00
2023-04-30T05:14:39.193Z,8.00
2023-04-30T05:15:39.200Z,4.00
2023-04-30T05:16:39.344Z,4.00
2023-04-30T05:17:39.299Z,8.00
2023-04-30T05:18:39.210Z,8.00
2023-04-30T05:19:39.227Z,8.00
2023-04-30T05:20:39.218Z,8.00
2023-04-30T05:21:39.211Z,8.00
2023-04-30T05:22:39.214Z,8.00
2023-04-30T05:23:39.220Z,12.00
2023-04-30T05:24:39.214Z,8.00
2023-04-30T05:25:39.223Z,8.00
2023-04-30T05:26:39.229Z,8.00
2023-04-30T05:27:39.228Z,8.00
2023-04-30T05:28:39.230Z,8.00
2023-04-30T05:29:39.226Z,4.00
2023-04-30T05:30:39.223Z,4.00
2023-04-30T05:31:39.267Z,4.00
2023-04-30T05:32:39.287Z,4.00
2023-04-30T05:33:39.235Z,8.00
2023-04-30T05:34:39.235Z,8.00
2023-04-30T05:35:39.262Z,44.00
2023-04-30T05:36:39.255Z,28.00
2023-04-30T05:37:39.390Z,32.00
2023-04-30T05:38:39.244Z,36.00
2023-04-30T05:39:39.248Z,40.00
2023-04-30T05:40:39.248Z,40.00
2023-04-30T05:41:39.260Z,40.00
2023-04-30T05:42:39.300Z,40.00
2023-04-30T05:43:39.261Z,48.00
2023-04-30T05:44:39.264Z,44.00
2023-04-30T05:45:39.407Z,28.00
2023-04-30T05:46:39.261Z,40.00
2023-04-30T05:47:39.315Z,40.00
2023-04-30T05:48:39.265Z,40.00
2023-04-30T05:49:39.271Z,32.00
2023-04-30T05:50:39.317Z,24.00
2023-04-30T05:51:39.304Z,24.00
2023-04-30T05:52:39.280Z,24.00
2023-04-30T05:53:39.287Z,28.00
2023-04-30T05:54:39.279Z,36.00
2023-04-30T05:55:39.288Z,44.00
2023-04-30T05:56:39.288Z,32.00
2023-04-30T05:57:39.300Z,44.00
2023-04-30T05:58:39.285Z,56.00
2023-04-30T05:59:39.296Z,48.00
2023-04-30T06:00:39.291Z,44.00
2023-04-30T06:01:39.308Z,52.00
2023-04-30T06:02:39.463Z,52.00
2023-04-30T06:03:39.302Z,52.00
2023-04-30T06:04:39.295Z,44.00
2023-04-30T06:05:39.405Z,56.00
2023-04-30T06:06:39.363Z,44.00
2023-04-30T06:07:39.332Z,40.00
2023-04-30T06:08:39.315Z,36.00
2023-04-30T06:09:39.308Z,40.00
2023-04-30T06:10:39.330Z,48.00
2023-04-30T06:11:41.672Z,44.00
2023-04-30T06:12:39.318Z,40.00
2023-04-30T06:13:39.322Z,32.00
2023-04-30T06:14:39.322Z,36.00
2023-04-30T06:15:39.345Z,32.00
2023-04-30T06:16:39.389Z,36.00
2023-04-30T06:17:39.464Z,32.00
2023-04-30T06:18:39.327Z,32.00
2023-04-30T06:19:39.334Z,32.00
2023-04-30T06:20:39.337Z,36.00
2023-04-30T06:21:39.339Z,32.00
2023-04-30T06:22:39.336Z,28.00
2023-04-30T06:23:39.368Z,28.00
2023-04-30T06:24:39.342Z,32.00
2023-04-30T06:25:39.343Z,32.00
2023-04-30T06:26:39.432Z,32.00
2023-04-30T06:27:39.352Z,28.00
2023-04-30T06:28:39.364Z,28.00
2023-04-30T06:29:39.356Z,24.00
2023-04-30T06:30:39.390Z,20.00
2023-04-30T06:31:39.468Z,28.00
2023-04-30T06:32:39.480Z,28.00
2023-04-30T06:33:39.375Z,40.00
2023-04-30T06:34:39.361Z,28.00
2023-04-30T06:35:39.368Z,32.00
2023-04-30T06:36:39.371Z,32.00
2023-04-30T06:37:39.421Z,40.00
2023-04-30T06:38:39.428Z,48.00
2023-04-30T06:39:39.394Z,36.00
2023-04-30T06:40:39.452Z,48.00
2023-04-30T06:41:39.416Z,48.00
2023-04-30T06:42:39.416Z,44.00
2023-04-30T06:43:39.460Z,40.00
2023-04-30T06:44:39.446Z,40.00
2023-04-30T06:45:39.442Z,52.00
2023-04-30T06:46:39.489Z,68.00
2023-04-30T06:47:39.529Z,60.00
2023-04-30T06:48:39.395Z,60.00
2023-04-30T06:49:39.479Z,68.00
2023-04-30T06:50:39.481Z,68.00
2023-04-30T06:51:39.491Z,52.00
2023-04-30T06:52:39.442Z,32.00
2023-04-30T06:53:39.404Z,32.00
2023-04-30T06:54:39.406Z,40.00
2023-04-30T06:55:39.429Z,28.00
2023-04-30T06:56:39.410Z,20.00
2023-04-30T06:57:39.409Z,20.00
2023-04-30T06:58:39.412Z,28.00
2023-04-30T06:59:39.433Z,24.00
2023-04-30T07:00:39.415Z,20.00
2023-04-30T07:01:39.509Z,20.00
2023-04-30T07:02:39.481Z,16.00
2023-04-30T07:03:39.517Z,32.00
2023-04-30T07:04:39.428Z,32.00
2023-04-30T07:05:39.426Z,32.00
2023-04-30T07:06:39.554Z,36.00
2023-04-30T07:07:39.748Z,36.00
2023-04-30T07:08:39.431Z,32.00
2023-04-30T07:09:39.435Z,24.00
2023-04-30T07:10:39.444Z,20.00
2023-04-30T07:11:39.469Z,20.00
2023-04-30T07:12:39.502Z,16.00
2023-04-30T07:13:39.441Z,12.00
2023-04-30T07:14:39.449Z,12.00
2023-04-30T07:15:39.502Z,20.00
2023-04-30T07:16:39.448Z,20.00
2023-04-30T07:17:39.554Z,20.00
2023-04-30T07:18:39.453Z,32.00
2023-04-30T07:19:39.459Z,28.00
2023-04-30T07:20:39.453Z,36.00
2023-04-30T07:21:39.469Z,36.00
2023-04-30T07:22:39.460Z,36.00
2023-04-30T07:23:39.465Z,28.00
2023-04-30T07:24:39.479Z,28.00
2023-04-30T07:25:39.479Z,24.00
2023-04-30T07:26:39.476Z,24.00
2023-04-30T07:27:39.499Z,32.00
2023-04-30T07:28:39.472Z,28.00
2023-04-30T07:29:39.468Z,32.00
2023-04-30T07:30:39.478Z,28.00
2023-04-30T07:31:39.548Z,40.00
2023-04-30T07:32:39.493Z,32.00
2023-04-30T07:33:39.490Z,36.00
2023-04-30T07:34:39.492Z,20.00
2023-04-30T07:35:39.485Z,16.00
2023-04-30T07:36:39.513Z,12.00
2023-04-30T07:37:41.107Z,12.00
2023-04-30T07:38:39.487Z,12.00
2023-04-30T07:39:39.498Z,12.00
2023-04-30T07:40:39.506Z,12.00
2023-04-30T07:41:39.514Z,16.00
2023-04-30T07:42:39.513Z,16.00
2023-04-30T07:43:39.534Z,24.00
2023-04-30T07:44:39.498Z,24.00
2023-04-30T07:45:39.574Z,88.00
2023-04-30T07:46:39.693Z,56.00
2023-04-30T07:47:39.594Z,88.00
2023-04-30T07:48:39.516Z,132.00
2023-04-30T07:49:39.520Z,140.00
2023-04-30T07:50:39.515Z,112.00
2023-04-30T07:51:39.522Z,124.00
2023-04-30T07:52:39.523Z,144.00
2023-04-30T07:53:39.529Z,156.00
2023-04-30T07:54:39.530Z,144.00
2023-04-30T07:55:39.535Z,124.00
2023-04-30T07:56:39.531Z,124.00
2023-04-30T07:57:39.681Z,80.00
2023-04-30T07:58:39.541Z,112.00
2023-04-30T07:59:39.559Z,84.00
2023-04-30T08:00:39.552Z,40.00
2023-04-30T08:01:39.588Z,44.00
2023-04-30T08:02:39.705Z,44.00
2023-04-30T08:03:39.673Z,48.00
2023-04-30T08:04:39.550Z,72.00
2023-04-30T08:05:39.552Z,72.00
2023-04-30T08:06:39.630Z,92.00
2023-04-30T08:07:39.573Z,140.00
2023-04-30T08:08:39.570Z,152.00
2023-04-30T08:09:39.601Z,80.00
2023-04-30T08:10:39.560Z,72.00
2023-04-30T08:11:39.570Z,72.00
2023-04-30T08:12:39.575Z,48.00
2023-04-30T08:13:39.581Z,60.00
2023-04-30T08:14:39.573Z,56.00
2023-04-30T08:15:39.598Z,48.00
2023-04-30T08:16:39.778Z,40.00
2023-04-30T08:17:39.627Z,24.00
2023-04-30T08:18:39.582Z,20.00
2023-04-30T08:19:39.592Z,20.00
2023-04-30T08:20:39.590Z,24.00
2023-04-30T08:21:39.586Z,28.00
2023-04-30T08:22:39.588Z,36.00
2023-04-30T08:23:39.591Z,28.00
2023-04-30T08:24:39.595Z,32.00
2023-04-30T08:25:39.598Z,40.00
2023-04-30T08:26:39.596Z,44.00
2023-04-30T08:27:39.600Z,36.00
2023-04-30T08:28:39.608Z,36.00
2023-04-30T08:29:39.610Z,40.00
2023-04-30T08:30:39.624Z,36.00
2023-04-30T08:31:39.670Z,40.00
2023-04-30T08:32:39.637Z,32.00
2023-04-30T08:33:39.616Z,44.00
2023-04-30T08:34:39.618Z,48.00
2023-04-30T08:35:39.625Z,36.00
2023-04-30T08:36:39.621Z,48.00
2023-04-30T08:37:39.623Z,44.00
2023-04-30T08:38:39.638Z,32.00
2023-04-30T08:39:39.632Z,44.00
2023-04-30T08:41:39.646Z,48.00
2023-04-30T08:42:39.634Z,48.00
2023-04-30T08:43:39.654Z,44.00
2023-04-30T08:44:39.708Z,64.00
2023-04-30T08:45:39.785Z,44.00
2023-04-30T08:46:39.907Z,36.00
2023-04-30T08:47:39.751Z,24.00
2023-04-30T08:48:39.647Z,32.00
2023-04-30T08:49:39.645Z,36.00
2023-04-30T08:50:39.647Z,36.00
2023-04-30T08:51:39.648Z,36.00
2023-04-30T08:52:39.654Z,68.00
2023-04-30T08:53:39.657Z,40.00
2023-04-30T08:54:39.656Z,48.00
2023-04-30T08:55:39.660Z,44.00
2023-04-30T08:56:39.663Z,52.00
2023-04-30T08:57:39.674Z,68.00
2023-04-30T08:58:39.670Z,68.00
2023-04-30T08:59:39.666Z,48.00
2023-04-30T09:00:39.709Z,56.00
2023-04-30T09:01:39.690Z,56.00
2023-04-30T09:02:39.725Z,36.00
2023-04-30T09:03:39.793Z,32.00
2023-04-30T09:04:39.695Z,32.00
2023-04-30T09:05:39.678Z,32.00
2023-04-30T09:06:39.823Z,40.00
2023-04-30T09:07:41.540Z,44.00
2023-04-30T09:08:39.691Z,36.00
2023-04-30T09:09:39.871Z,28.00
2023-04-30T09:10:39.695Z,28.00
2023-04-30T09:11:39.695Z,20.00
2023-04-30T09:12:39.693Z,16.00
2023-04-30T09:13:39.705Z,16.00
2023-04-30T09:14:39.700Z,12.00
2023-04-30T09:15:39.714Z,16.00
2023-04-30T09:16:39.705Z,12.00
2023-04-30T09:17:39.741Z,16.00
2023-04-30T09:18:39.720Z,16.00
2023-04-30T09:19:39.743Z,16.00
2023-04-30T09:20:39.717Z,16.00
2023-04-30T09:21:39.728Z,12.00
2023-04-30T09:22:39.720Z,16.00
2023-04-30T09:23:39.715Z,16.00
2023-04-30T09:24:39.717Z,16.00
2023-04-30T09:25:39.717Z,16.00
2023-04-30T09:26:39.730Z,16.00
2023-04-30T09:27:39.725Z,20.00
2023-04-30T09:28:39.726Z,20.00
2023-04-30T09:29:39.728Z,20.00
2023-04-30T09:30:39.731Z,16.00
2023-04-30T09:31:39.777Z,20.00
2023-04-30T09:32:39.803Z,24.00
2023-04-30T09:33:39.736Z,20.00
2023-04-30T09:34:39.738Z,24.00
2023-04-30T09:35:39.768Z,28.00
2023-04-30T09:36:39.745Z,24.00
2023-04-30T09:37:39.743Z,28.00
2023-04-30T09:38:39.743Z,24.00
2023-04-30T09:39:39.747Z,24.00
2023-04-30T09:40:39.877Z,32.00
2023-04-30T09:41:39.748Z,36.00
2023-04-30T09:42:39.765Z,36.00
2023-04-30T09:43:39.806Z,52.00
2023-04-30T09:44:39.763Z,56.00
2023-04-30T09:45:39.776Z,60.00
2023-04-30T09:46:39.806Z,68.00
2023-04-30T09:47:39.821Z,60.00
2023-04-30T09:48:39.788Z,48.00
2023-04-30T09:49:39.765Z,52.00
2023-04-30T09:50:41.828Z,40.00
2023-04-30T09:51:39.796Z,36.00
2023-04-30T09:52:39.777Z,28.00
2023-04-30T09:53:39.781Z,40.00
2023-04-30T09:54:39.787Z,40.00
2023-04-30T09:55:39.774Z,40.00
2023-04-30T09:56:39.782Z,44.00
2023-04-30T09:57:39.787Z,36.00
2023-04-30T09:58:39.794Z,36.00
2023-04-30T09:59:39.787Z,36.00
2023-04-30T10:00:39.922Z,32.00
2023-04-30T10:01:41.097Z,32.00
2023-04-30T10:02:39.825Z,36.00
2023-04-30T10:03:39.836Z,36.00
2023-04-30T10:04:39.807Z,40.00
2023-04-30T10:05:39.812Z,40.00
2023-04-30T10:06:39.842Z,40.00
2023-04-30T10:07:39.826Z,48.00
2023-04-30T10:08:39.802Z,40.00
2023-04-30T10:09:39.814Z,48.00
2023-04-30T10:10:39.818Z,52.00
2023-04-30T10:11:39.851Z,48.00
2023-04-30T10:12:39.972Z,48.00
2023-04-30T10:13:39.828Z,44.00
2023-04-30T10:14:39.824Z,44.00
2023-04-30T10:15:39.856Z,44.00
2023-04-30T10:16:39.866Z,44.00
2023-04-30T10:17:39.856Z,44.00
2023-04-30T10:18:39.851Z,48.00
2023-04-30T10:19:39.853Z,36.00
2023-04-30T10:20:39.828Z,40.00
2023-04-30T10:21:39.842Z,32.00
2023-04-30T10:22:39.830Z,36.00
2023-04-30T10:23:39.868Z,48.00
2023-04-30T10:24:39.862Z,52.00
2023-04-30T10:25:39.842Z,48.00
2023-04-30T10:26:39.850Z,44.00
2023-04-30T10:27:39.847Z,64.00
2023-04-30T10:28:39.856Z,52.00
2023-04-30T10:29:39.846Z,52.00
2023-04-30T10:30:39.849Z,156.00
2023-04-30T10:31:39.908Z,116.00
2023-04-30T10:32:40.193Z,44.00
2023-04-30T10:33:39.852Z,44.00
2023-04-30T10:34:39.879Z,64.00
2023-04-30T10:35:39.857Z,60.00
2023-04-30T10:36:39.860Z,72.00
2023-04-30T10:37:39.858Z,56.00
2023-04-30T10:38:39.915Z,56.00
2023-04-30T10:39:39.982Z,64.00
2023-04-30T10:40:39.879Z,72.00
2023-04-30T10:41:39.867Z,72.00
2023-04-30T10:42:39.875Z,100.00
2023-04-30T10:43:39.890Z,80.00
2023-04-30T10:44:39.904Z,52.00
2023-04-30T10:45:39.904Z,48.00
2023-04-30T10:46:40.064Z,36.00
2023-04-30T10:47:39.901Z,32.00
2023-04-30T10:48:39.888Z,32.00
2023-04-30T10:49:39.878Z,28.00
2023-04-30T10:50:39.886Z,40.00
2023-04-30T10:51:39.896Z,32.00
2023-04-30T10:52:39.899Z,40.00
2023-04-30T10:53:39.897Z,28.00
2023-04-30T10:54:39.893Z,24.00
2023-04-30T10:55:39.923Z,24.00
2023-04-30T10:56:39.907Z,28.00
2023-04-30T10:57:39.902Z,20.00
2023-04-30T10:58:39.904Z,24.00
2023-04-30T10:59:39.901Z,24.00
2023-04-30T11:00:39.919Z,32.00
2023-04-30T11:01:39.973Z,28.00
2023-04-30T11:02:39.956Z,40.00
2023-04-30T11:03:39.959Z,36.00
2023-04-30T11:04:39.933Z,36.00
2023-04-30T11:05:39.919Z,20.00
2023-04-30T11:06:40.049Z,32.00
2023-04-30T11:07:39.924Z,24.00
2023-04-30T11:08:39.926Z,28.00
2023-04-30T11:09:39.957Z,24.00
2023-04-30T11:10:39.935Z,24.00
2023-04-30T11:11:39.958Z,24.00
2023-04-30T11:12:39.931Z,24.00
2023-04-30T11:13:39.938Z,32.00
2023-04-30T11:14:39.952Z,28.00
2023-04-30T11:15:39.979Z,36.00
2023-04-30T11:16:39.985Z,32.00
2023-04-30T11:17:39.976Z,24.00
2023-04-30T11:18:39.941Z,28.00
2023-04-30T11:19:39.956Z,28.00
2023-04-30T11:20:39.955Z,32.00
2023-04-30T11:21:39.960Z,36.00
2023-04-30T11:22:39.958Z,24.00
2023-04-30T11:23:42.087Z,20.00
2023-04-30T11:24:39.961Z,16.00
2023-04-30T11:25:39.956Z,20.00
2023-04-30T11:26:39.965Z,16.00
2023-04-30T11:27:39.990Z,20.00
2023-04-30T11:28:39.966Z,20.00
2023-04-30T11:29:39.974Z,20.00
2023-04-30T11:30:39.974Z,20.00
2023-04-30T11:31:40.007Z,16.00
2023-04-30T11:32:40.014Z,16.00
2023-04-30T11:33:39.976Z,20.00
2023-04-30T11:34:39.984Z,20.00
2023-04-30T11:35:39.980Z,16.00
2023-04-30T11:36:39.982Z,16.00
2023-04-30T11:37:39.987Z,20.00
2023-04-30T11:38:40.042Z,20.00
2023-04-30T11:39:39.998Z,16.00
2023-04-30T11:40:39.988Z,16.00
2023-04-30T11:41:39.994Z,12.00
2023-04-30T11:42:40.011Z,16.00
2023-04-30T11:43:40.028Z,16.00
2023-04-30T11:44:40.001Z,12.00
2023-04-30T11:45:39.998Z,12.00
2023-04-30T11:46:40.029Z,12.00
2023-04-30T11:47:40.069Z,12.00
2023-04-30T11:48:40.008Z,16.00
2023-04-30T11:49:40.006Z,24.00
2023-04-30T11:50:41.020Z,52.00
2023-04-30T11:51:40.014Z,48.00
2023-04-30T11:52:40.014Z,40.00
2023-04-30T11:53:40.012Z,68.00
2023-04-30T11:54:40.020Z,72.00
2023-04-30T11:55:40.021Z,60.00
2023-04-30T11:56:41.407Z,56.00
2023-04-30T11:57:40.048Z,48.00
2023-04-30T11:58:40.030Z,48.00
2023-04-30T11:59:40.067Z,44.00
2023-04-30T12:00:40.034Z,32.00
2023-04-30T12:01:40.091Z,48.00
2023-04-30T12:02:40.262Z,44.00
2023-04-30T12:03:40.161Z,36.00
2023-04-30T12:04:40.114Z,28.00
2023-04-30T12:05:40.042Z,20.00
2023-04-30T12:06:40.096Z,28.00
2023-04-30T12:07:40.057Z,20.00
2023-04-30T12:08:40.072Z,24.00
2023-04-30T12:09:40.058Z,24.00
2023-04-30T12:10:40.058Z,24.00
2023-04-30T12:11:40.050Z,20.00
2023-04-30T12:12:40.063Z,24.00
2023-04-30T12:13:40.215Z,24.00
2023-04-30T12:14:40.071Z,24.00
2023-04-30T12:15:40.090Z,20.00
2023-04-30T12:16:40.147Z,16.00
2023-04-30T12:17:40.091Z,20.00
2023-04-30T12:18:40.065Z,16.00
2023-04-30T12:19:40.093Z,16.00
2023-04-30T12:20:40.069Z,16.00
2023-04-30T12:21:40.069Z,20.00
2023-04-30T12:22:40.081Z,20.00
2023-04-30T12:23:40.092Z,28.00
2023-04-30T12:24:40.084Z,36.00
2023-04-30T12:25:40.081Z,40.00
2023-04-30T12:26:40.234Z,36.00
2023-04-30T12:27:40.084Z,32.00
2023-04-30T12:28:40.098Z,32.00
2023-04-30T12:29:40.242Z,32.00
2023-04-30T12:30:40.098Z,36.00
2023-04-30T12:31:40.130Z,28.00
2023-04-30T12:32:40.226Z,28.00
2023-04-30T12:33:40.103Z,40.00
2023-04-30T12:34:40.101Z,32.00
2023-04-30T12:35:40.103Z,36.00
2023-04-30T12:36:40.113Z,40.00
2023-04-30T12:37:40.112Z,56.00
2023-04-30T12:38:40.109Z,68.00
2023-04-30T12:39:40.111Z,92.00
2023-04-30T12:40:40.111Z,104.00
2023-04-30T12:41:40.120Z,84.00
2023-04-30T12:42:40.115Z,56.00
2023-04-30T12:43:40.138Z,68.00
2023-04-30T12:44:40.113Z,44.00
2023-04-30T12:45:40.233Z,44.00
2023-04-30T12:46:40.340Z,40.00
2023-04-30T12:47:40.171Z,40.00
2023-04-30T12:48:40.125Z,36.00
2023-04-30T12:49:40.144Z,40.00
2023-04-30T12:50:40.138Z,44.00
2023-04-30T12:51:40.159Z,40.00
2023-04-30T12:52:40.142Z,24.00
2023-04-30T12:53:40.142Z,28.00
2023-04-30T12:54:40.138Z,36.00
2023-04-30T12:55:40.142Z,44.00
2023-04-30T12:56:40.143Z,60.00
2023-04-30T12:57:40.147Z,60.00
2023-04-30T12:58:40.148Z,60.00
2023-04-30T12:59:40.150Z,56.00
2023-04-30T13:00:40.163Z,56.00
2023-04-30T13:01:40.218Z,52.00
2023-04-30T13:02:40.273Z,56.00
2023-04-30T13:03:40.424Z,52.00